EIME

Casement Air Base Airport

Baldonnel, Ireland
TAF EIME 210800Z 2109/2118 33010KT 9999 FEW020
Issued Valid From Valid To
Jun-21 @ 08:00 UTC
(2 hours ago)
Jun-21 @ 09:00 UTC
(an hour ago)
Jun-21 @ 18:00 UTC
(in 8 hours)
Jun-21 @ 09:00 to Jun-21 @ 18:00
TAF EIME 210800Z 2109/2118 33010KT 9999 FEW020
Wind Visibility Clouds
330° at 10 knots 10,000+ meters
  • Few at 2,000' AGL
TAF EIME 210800Z 2109/2118 33010KT 9999 FEW020
Issued Jun-21 @ 08:00 UTC
(2 hours ago)
Valid From Jun-21 @ 09:00 UTC
(an hour ago)
Valid To Jun-21 @ 18:00 UTC
(in 8 hours)
Jun-21 @ 09:00 - Jun-21 @ 18:00
Wind Visibility
330° at 10 knots 10,000+ meters
Clouds
  • Few at 2,000' AGL